Latest Weather Observations for Palmerville

IDQ60801

Issued at 12:03 pm EST Monday 27 June 2016 (issued every 30 minutes, with the page automatically refreshed every 10 minutes)

About weather observations | Map of weather stations | Latest weather observations for QLD | Other Formats
Station Details ID: 028004 Name: PALMERVILLE Lat: -16.00 Lon: 144.08 Height: 203.8 m
Data from the previous 72 hours. | See also: Recent months at Palmerville
Date/Time
EST
Temp
°C
App
Temp
°C
Dew
Point
°C
Rel
Hum
%
Delta-T
°C
Wind Press
QNH
hPa
Press
MSL
hPa
Rain since
9am
mm
Dir  Spd
km/h
Gust
km/h
Spd
kts
Gust
kts
27/12:00pm 30.1 31.4 19.2 52 7.1 SSE 11 15 6 8 1015.6 1014.7 0.0
27/11:30am 30.4 33.5 20.3 54 6.7 SSW 4 11 2 6 1015.9 1015.0 0.0
27/11:00am 28.7 30.9 19.3 56 6.1 NE 6 11 3 6 1016.4 1015.5 0.0
27/10:30am 27.9 30.1 19.7 61 5.4 ENE 7 9 4 5 1016.7 1015.8 0.0
27/10:00am 27.1 29.0 19.7 64 4.8 NE 9 15 5 8 1016.9 1016.0 0.0
27/09:30am 26.1 27.7 19.2 65 4.5 NE 9 17 5 9 1017.0 1016.1 0.0
27/09:00am 24.8 26.8 19.2 71 3.6 ENE 7 11 4 6 1017.0 1016.1 0.0
27/08:30am 24.2 26.4 19.7 76 2.9 NE 7 9 4 5 1016.7 1015.8 0.0
27/08:00am 22.7 25.6 19.9 84 1.8 E 4 9 2 5 1016.4 1015.5 0.0
27/07:30am 20.8 23.6 19.6 93 0.8 E 4 7 2 4 1016.2 1015.3 0.0
27/07:00am 20.4 23.3 19.1 92 0.8 ENE 2 7 1 4 1015.7 1014.8 0.0
27/06:30am 20.7 24.0 19.2 91 1.0 CALM 0 4 0 2 1015.3 1014.4 0.0
27/06:00am 21.1 23.3 19.2 89 1.2 ENE 6 9 3 5 1014.9 1014.0 0.0
27/05:30am 21.3 23.4 19.0 87 1.5 ENE 6 9 3 5 1014.9 1014.0 0.0
27/05:00am 21.5 24.5 19.2 87 1.5 ENE 2 7 1 4 1014.6 1013.7 0.0
27/04:30am 21.4 23.5 19.0 86 1.5 ENE 6 9 3 5 1014.4 1013.5 0.0
27/04:00am 21.3 24.4 18.7 85 1.6 CALM 0 6 0 3 1014.4 1013.5 0.0
27/03:30am 21.7 24.9 18.9 84 1.8 CALM 0 6 0 3 1014.5 1013.6 0.0
27/03:00am 21.8 24.1 18.6 82 2.0 ENE 4 7 2 4 1014.5 1013.6 0.0
27/02:30am 22.2 24.3 19.0 82 2.0 ENE 6 9 3 5 1014.6 1013.7 0.0
27/02:00am 22.2 24.7 19.0 82 2.0 E 4 7 2 4 1014.8 1013.9 0.0
27/01:30am 22.2 24.1 19.0 82 2.0 E 7 9 4 5 1015.0 1014.1 0.0
27/01:00am 22.4 24.5 19.0 81 2.2 ENE 6 9 3 5 1015.1 1014.2 0.0
27/12:30am 22.2 24.9 18.6 80 2.3 E 2 7 1 4 1015.0 1014.1 0.0
27/12:00am 22.6 25.3 18.6 78 2.5 ENE 2 7 1 4 1014.9 1014.0 0.0
 
Date/Time
EST
Temp
°C
App
Temp
°C
Dew
Point
°C
Rel
Hum
%
Delta-T
°C
Wind Press
QNH
hPa
Press
MSL
hPa
Rain since
9am
mm
Dir  Spd
km/h
Gust
km/h
Spd
kts
Gust
kts
26/11:30pm 23.2 24.7 18.9 77 2.7 NE 9 15 5 8 1014.8 1013.9 0.0
26/11:00pm 23.6 25.8 19.1 76 2.9 ENE 6 11 3 6 1014.9 1014.0 0.0
26/10:30pm 23.7 25.2 18.8 74 3.1 NE 9 15 5 8 1014.9 1014.0 0.0
26/10:00pm 23.6 25.1 18.9 75 3.0 NE 9 11 5 6 1014.9 1014.0 0.0
26/09:30pm 24.2 25.7 18.8 72 3.5 NE 9 11 5 6 1014.9 1014.0 0.0
26/09:00pm 24.6 26.1 19.0 71 3.6 NE 9 13 5 7 1014.6 1013.7 0.0
26/08:30pm 25.2 26.4 19.1 69 3.9 NE 11 17 6 9 1014.3 1013.4 0.0
26/08:00pm 25.8 27.3 19.0 66 4.4 ENE 9 19 5 10 1014.1 1013.2 0.0
26/07:30pm 26.2 27.5 19.3 65 4.5 NNE 11 15 6 8 1013.8 1012.9 0.0
26/07:00pm 26.1 28.5 18.8 64 4.7 NNE 4 7 2 4 1013.3 1012.3 0.0
26/06:30pm 26.8 28.7 18.9 62 5.1 N 7 9 4 5 1012.8 1011.9 0.0
26/06:00pm 27.8 28.9 18.8 58 5.8 NNE 11 15 6 8 1012.6 1011.7 0.0
26/05:30pm 28.1 30.9 18.8 57 6.0 NNW 2 9 1 5 1012.2 1011.3 0.0
26/05:00pm 29.5 32.3 18.0 50 7.4 CALM 0 0 0 0 1012.0 1011.1 0.0
26/04:30pm 29.8 32.0 18.3 50 7.4 NE 4 9 2 5 1011.8 1010.9 0.0
26/04:00pm 30.6 32.0 18.7 49 7.8 NNE 9 13 5 7 1011.8 1010.9 0.0
26/03:30pm 30.2 32.8 18.3 49 7.7 W 2 6 1 3 1011.8 1010.9 0.0
26/03:00pm 29.2 30.8 18.3 51 7.0 NE 7 11 4 6 1012.0 1011.1 0.0
26/02:30pm 29.4 31.7 18.5 52 7.1 NE 4 11 2 6 1012.3 1011.4 0.0
26/02:00pm 29.0 31.0 18.7 53 6.7 NE 6 13 3 7 1012.6 1011.7 0.0
26/01:30pm 29.4 30.7 18.5 52 7.1 NE 9 13 5 7 1012.9 1012.0 0.0
26/01:00pm 29.3 30.1 19.0 53 6.7 ENE 13 20 7 11 1013.3 1012.3 0.0
26/12:30pm 29.1 29.8 18.8 53 6.7 NNE 13 20 7 11 1013.9 1013.0 0.0
26/12:00pm 28.4 29.3 19.3 57 5.9 NNE 13 20 7 11 1014.5 1013.6 0.0
26/11:30am 27.8 28.7 19.3 60 5.5 E 13 19 7 10 1015.0 1014.1 0.0
26/11:00am 27.4 29.0 20.0 64 4.9 ENE 11 19 6 10 1015.3 1014.4 0.0
26/10:30am 27.2 28.5 19.3 62 5.1 ENE 11 19 6 10 1015.5 1014.6 0.0
26/10:00am 27.0 28.1 19.6 64 4.8 ENE 13 19 7 10 1015.7 1014.8 0.0
26/09:30am 25.8 28.0 19.7 69 4.0 E 7 11 4 6 1015.7 1014.8 0.0
26/09:00am 24.3 26.5 19.6 75 3.0 NE 7 11 4 6 1015.7 1014.8 0.0
26/08:30am 22.1 25.3 18.9 82 2.0 CALM 0 0 0 0 1015.7 1014.8 0.0
26/08:00am 21.0 23.3 19.5 91 1.0 ESE 6 7 3 4 1015.6 1014.7 0.0
26/07:30am 19.3 22.5 18.8 97 0.3 CALM 0 0 0 0 1015.5 1014.6 0.0
26/07:00am 19.1 21.0 18.6 97 0.3 ESE 6 7 3 4 1015.3 1014.4 0.0
26/06:30am 18.5 21.0 17.3 93 0.7 CALM 0 0 0 0 1015.0 1014.1 0.0
26/06:00am 18.8 21.4 17.6 93 0.7 CALM 0 0 0 0 1014.8 1013.9 0.0
26/05:30am 19.1 21.9 17.9 93 0.7 CALM 0 0 0 0 1014.6 1013.7 0.0
26/05:00am 19.5 21.0 18.0 91 0.9 ESE 7 9 4 5 1014.3 1013.4 0.0
26/04:30am 19.7 21.2 18.0 90 1.1 E 7 9 4 5 1014.0 1013.1 0.0
26/04:00am 19.9 21.6 18.0 89 1.2 E 6 7 3 4 1013.8 1012.9 0.0
26/03:30am 20.0 21.6 17.8 87 1.4 E 6 7 3 4 1013.7 1012.8 0.0
26/03:00am 20.7 22.4 18.1 85 1.6 ENE 6 7 3 4 1013.8 1012.9 0.0
26/02:30am 20.8 22.9 18.2 85 1.6 ENE 4 7 2 4 1013.8 1012.9 0.0
26/02:00am 20.9 22.7 18.3 85 1.6 ENE 6 9 3 5 1014.0 1013.1 0.0
26/01:30am 20.4 23.2 18.0 86 1.5 CALM 0 0 0 0 1014.2 1013.3 0.0
26/01:00am 20.5 23.4 18.1 86 1.5 CALM 0 0 0 0 1014.2 1013.3 0.0
26/12:30am 21.1 24.0 18.1 83 1.9 CALM 0 6 0 3 1014.4 1013.5 0.0
26/12:00am 21.0 22.7 18.0 83 1.9 ENE 6 7 3 4 1014.7 1013.8 0.0
 
Date/Time
EST
Temp
°C
App
Temp
°C
Dew
Point
°C
Rel
Hum
%
Delta-T
°C
Wind Press
QNH
hPa
Press
MSL
hPa
Rain since
9am
mm
Dir  Spd
km/h
Gust
km/h
Spd
kts
Gust
kts
25/11:30pm 21.6 24.2 17.6 78 2.5 CALM 0 0 0 0 1014.8 1013.9 0.0
25/11:00pm 22.2 23.8 17.8 76 2.8 ESE 6 7 3 4 1014.9 1014.0 0.0
25/10:30pm 22.7 25.3 17.6 73 3.2 CALM 0 0 0 0 1015.0 1014.1 0.0
25/10:00pm 23.7 25.1 17.9 70 3.7 NNE 7 13 4 7 1015.0 1014.1 0.0
25/09:30pm 24.2 25.6 17.7 67 4.1 NNE 7 11 4 6 1015.0 1014.1 0.0
25/09:00pm 24.6 26.3 18.1 67 4.1 NNE 6 9 3 5 1014.8 1013.9 0.0
25/08:30pm 24.0 25.4 17.7 68 4.0 NE 7 11 4 6 1014.6 1013.7 0.0
25/08:00pm 24.7 26.5 17.4 64 4.6 E 4 7 2 4 1014.2 1013.3 0.0
25/07:30pm 25.4 26.4 17.8 62 4.8 NNE 9 15 5 8 1014.0 1013.1 0.0
25/07:00pm 25.9 26.9 17.8 61 5.1 NE 9 13 5 7 1013.7 1012.8 0.0
25/06:30pm 26.8 27.7 17.6 57 5.8 NE 9 20 5 11 1013.2 1012.2 0.0
25/06:00pm 27.7 28.8 18.1 56 6.2 NE 9 15 5 8 1013.1 1012.1 0.0
25/05:30pm 29.1 29.9 18.2 51 7.0 ENE 11 17 6 9 1012.7 1011.8 0.0
25/05:00pm 30.2 31.4 18.3 49 7.7 ENE 9 17 5 9 1012.5 1011.6 0.0
25/04:30pm 30.5 30.9 17.2 44 8.5 NNE 11 15 6 8 1012.3 1011.4 0.0
25/04:00pm 30.9 31.5 17.6 45 8.5 E 11 20 6 11 1012.2 1011.3 0.0
25/03:30pm 30.6 31.8 17.3 45 8.5 NE 7 11 4 6 1012.3 1011.4 0.0
25/03:00pm 30.6 31.3 17.0 44 8.7 E 9 15 5 8 1012.5 1011.6 0.0
25/02:30pm 31.2 31.7 17.5 44 8.8 NE 11 17 6 9 1012.6 1011.7 0.0
25/02:00pm 31.5 32.0 17.4 43 9.1 ENE 11 20 6 11 1013.2 1012.2 0.0
25/01:30pm 31.5 32.3 18.1 44 8.7 E 11 20 6 11 1013.5 1012.5 0.0
25/01:00pm 29.7 29.7 17.2 47 8.0 E 13 20 7 11 1013.9 1013.0 0.0
25/12:30pm 30.6 31.1 18.3 47 8.0 NE 13 20 7 11 1014.4 1013.5 0.0
25/12:00pm 30.4 31.7 18.5 49 7.7 E 9 20 5 11 1014.8 1013.9 0.0
25/11:30am 29.2 30.5 19.2 54 6.5 E 11 19 6 10 1015.2 1014.3 0.0
25/11:00am 28.1 29.4 19.3 58 5.7 NE 11 17 6 9 1015.6 1014.7 0.0
25/10:30am 27.2 28.9 19.3 62 5.1 ENE 9 15 5 8 1015.8 1014.9 0.0
25/10:00am 26.7 29.0 19.8 66 4.5 E 7 13 4 7 1015.6 1014.7 0.0
25/09:30am 25.6 28.3 20.2 72 3.5 ENE 6 11 3 6 1015.8 1014.9 0.0
25/09:00am 24.0 28.5 21.5 86 1.7 CALM 0 6 0 3 1015.7 1014.8 0.0
25/08:30am 21.3 25.3 20.6 96 0.5 CALM 0 0 0 0 1015.5 1014.6 0.0
25/08:00am 20.2 24.0 20.2 100 0.0 CALM 0 0 0 0 1015.1 1014.2 0.0
25/07:30am 19.2 22.5 19.2 100 0.0 CALM 0 0 0 0 1014.8 1013.9 0.0
25/07:00am 18.8 21.4 18.5 98 0.2 SSW 2 7 1 4 1014.7 1013.8 0.0
25/06:30am 19.7 22.0 19.5 99 0.1 SE 6 7 3 4 1014.0 1013.1 0.0
25/06:00am 20.2 22.7 20.2 100 0.0 E 7 9 4 5 1013.8 1012.9 0.0
25/05:30am 20.4 23.2 20.4 100 0.0 E 6 7 3 4 1013.5 1012.5 0.0
25/05:00am 20.5 23.7 20.5 100 0.0 E 4 9 2 5 1013.4 1012.4 0.0
25/04:30am 20.6 23.4 20.4 99 0.1 ESE 6 7 3 4 1013.3 1012.3 0.0
25/04:00am 20.4 23.0 20.1 98 0.2 NE 6 9 3 5 1013.1 1012.1 0.0
25/03:30am 21.1 24.0 21.1 100 0.0 E 7 11 4 6 1012.9 1012.0 0.0
25/03:00am 20.1 23.5 19.3 95 0.5 CALM 0 0 0 0 1013.4 1012.4 0.0
25/02:30am 21.1 25.2 20.8 98 0.2 CALM 0 4 0 2 1013.5 1012.5 0.0
25/02:00am 21.4 25.7 21.2 99 0.1 CALM 0 7 0 4 1013.6 1012.7 0.0
25/01:30am 21.0 24.6 20.5 97 0.3 E 2 7 1 4 1013.9 1013.0 0.0
25/01:00am 20.9 23.3 20.1 95 0.5 E 7 9 4 5 1014.0 1013.1 0.0
25/12:30am 21.0 24.5 19.5 91 1.0 CALM 0 0 0 0 1014.2 1013.3 0.0
25/12:00am 21.5 25.0 19.6 89 1.2 CALM 0 0 0 0 1014.3 1013.4 0.0
 
Date/Time
EST
Temp
°C
App
Temp
°C
Dew
Point
°C
Rel
Hum
%
Delta-T
°C
Wind Press
QNH
hPa
Press
MSL
hPa
Rain since
9am
mm
Dir  Spd
km/h
Gust
km/h
Spd
kts
Gust
kts
24/11:30pm 22.2 25.9 19.9 87 1.5 CALM 0 0 0 0 1014.5 1013.6 0.0
24/11:00pm 22.5 25.8 19.9 85 1.7 ENE 2 6 1 3 1014.6 1013.7 0.0
24/10:30pm 23.1 26.7 19.7 81 2.2 CALM 0 0 0 0 1014.7 1013.8 0.0
24/10:00pm 23.7 27.0 19.0 75 3.0 CALM 0 2 0 1 1014.6 1013.7 0.0
24/09:30pm 24.3 27.0 18.7 71 3.6 ENE 2 6 1 3 1014.4 1013.5 0.0
24/09:00pm 25.6 28.6 18.5 65 4.5 CALM 0 0 0 0 1014.2 1013.3 0.0
24/08:30pm 26.5 28.7 19.1 64 4.8 WSW 6 9 3 5 1014.1 1013.2 0.0
24/08:00pm 25.8 28.0 19.2 67 4.3 NE 6 7 3 4 1013.7 1012.8 0.0
24/07:30pm 25.6 29.1 19.5 69 4.0 CALM 0 0 0 0 1013.2 1012.2 0.0
24/07:00pm 26.0 29.4 19.4 67 4.3 CALM 0 0 0 0 1012.7 1011.8 0.0
24/06:30pm 27.4 30.5 18.7 59 5.6 CALM 0 0 0 0 1012.4 1011.5 0.0
24/06:00pm 29.2 32.1 18.3 51 7.0 CALM 0 0 0 0 1012.1 1011.2 0.0
24/05:30pm 31.3 32.7 17.9 44 8.7 W 7 9 4 5 1011.7 1010.8 0.0
24/05:00pm 32.2 33.7 17.7 42 9.4 WSW 6 9 3 5 1011.6 1010.7 0.0
24/04:30pm 33.0 34.2 16.8 38 10.4 S 6 11 3 6 1011.4 1010.5 0.0
24/04:00pm 33.5 35.6 18.0 39 10.1 NW 4 11 2 6 1011.4 1010.5 0.0
24/03:30pm 33.0 33.8 17.2 39 10.2 NNW 9 11 5 6 1011.5 1010.6 0.0
24/03:00pm 31.2 34.4 18.9 48 8.1 CALM 0 0 0 0 1011.7 1010.8 0.0
24/02:30pm 32.4 33.3 17.5 41 9.6 S 9 17 5 9 1011.9 1011.0 0.0
24/02:00pm 31.0 32.0 17.7 45 8.6 S 9 13 5 7 1012.3 1011.4 0.0
24/01:30pm 32.8 34.6 20.3 47 8.4 SSW 11 17 6 9 1012.6 1011.7 0.0
24/01:00pm 32.1 33.3 19.0 45 8.6 SSE 11 17 6 9 1013.1 1012.1 0.0
24/12:30pm 30.4 31.2 19.1 50 7.4 S 13 24 7 13 1013.7 1012.8 0.0

Other Formats:

Comma delimited format used in spreadsheet applications
http://www.bom.gov.au/fwo/IDQ60801/IDQ60801.94276.axf

JavaScript Object Notation format (JSON) in row-major order
http://www.bom.gov.au/fwo/IDQ60801/IDQ60801.94276.json